createdAt,value
2022-08-11T00:02:38.677Z,1.83
2022-08-11T00:07:45.472Z,1.52
2022-08-11T00:12:56.049Z,1.70
2022-08-11T00:18:02.283Z,1.90
2022-08-11T00:23:10.171Z,1.45
2022-08-11T00:28:28.142Z,1.45
2022-08-11T00:33:44.367Z,1.48
2022-08-11T00:38:53.191Z,1.62
2022-08-11T00:44:16.983Z,2.28
2022-08-11T00:49:35.027Z,1.50
2022-08-11T00:55:19.719Z,1.70
2022-08-11T01:00:25.773Z,1.52
2022-08-11T01:05:58.021Z,1.58
2022-08-11T01:11:56.014Z,1.60
2022-08-11T01:17:30.118Z,1.80
2022-08-11T01:23:15.836Z,1.50
2022-08-11T01:28:49.106Z,1.70
2022-08-11T01:34:30.403Z,1.75
2022-08-11T01:40:18.030Z,1.77
2022-08-11T01:45:37.737Z,1.90
2022-08-11T01:50:58.739Z,1.45
2022-08-11T01:56:14.228Z,2.05
2022-08-11T02:01:42.353Z,1.95
2022-08-11T02:12:16.583Z,2.15
2022-08-11T02:17:38.916Z,2.12
2022-08-11T02:23:11.976Z,2.25
2022-08-11T02:28:23.823Z,2.10
2022-08-11T02:33:36.575Z,2.15
2022-08-11T02:38:50.608Z,2.58
2022-08-11T02:44:10.921Z,2.53
2022-08-11T02:49:45.119Z,2.67
2022-08-11T02:54:56.952Z,1.98
2022-08-11T03:00:09.899Z,2.15
2022-08-11T03:05:34.236Z,2.42
2022-08-11T03:11:11.347Z,2.80
2022-08-11T03:16:55.145Z,2.83
2022-08-11T03:22:18.018Z,2.78
2022-08-11T03:27:37.461Z,2.50
2022-08-11T03:33:06.882Z,2.42
2022-08-11T03:38:16.079Z,2.22
2022-08-11T03:43:35.885Z,2.35
2022-08-11T03:49:02.690Z,3.03
2022-08-11T03:54:23.872Z,2.33
2022-08-11T03:59:52.467Z,2.80
2022-08-11T04:05:28.023Z,2.90
2022-08-11T04:10:59.775Z,2.72
2022-08-11T04:16:20.096Z,2.83
2022-08-11T04:22:09.363Z,2.70
2022-08-11T04:27:54.143Z,3.40
2022-08-11T04:33:37.614Z,3.25
2022-08-11T04:39:05.275Z,2.97
2022-08-11T04:44:33.083Z,3.10
2022-08-11T04:50:14.338Z,2.72
2022-08-11T04:56:13.345Z,3.15
2022-08-11T05:01:46.108Z,2.80
2022-08-11T05:07:13.543Z,3.45
2022-08-11T05:12:33.300Z,3.60
2022-08-11T05:18:00.488Z,3.55
2022-08-11T05:23:27.379Z,3.03
2022-08-11T05:28:51.860Z,3.35
2022-08-11T05:34:17.874Z,4.60
2022-08-11T05:39:43.432Z,4.15
2022-08-11T05:45:15.421Z,4.28
2022-08-11T05:50:41.193Z,4.22
2022-08-11T05:56:04.117Z,4.60
2022-08-11T06:01:09.022Z,3.40
2022-08-11T06:06:14.636Z,3.78
2022-08-11T06:11:19.076Z,3.75
2022-08-11T06:16:43.724Z,3.60
2022-08-11T06:21:49.363Z,3.97
2022-08-11T06:27:12.656Z,4.10
2022-08-11T06:32:17.508Z,4.60
2022-08-11T06:37:27.551Z,4.32
2022-08-11T06:42:44.769Z,4.50
2022-08-11T06:47:49.764Z,3.90
2022-08-11T06:52:55.404Z,4.50
2022-08-11T06:58:17.184Z,4.43
2022-08-11T07:03:22.208Z,4.20
2022-08-11T07:09:28.282Z,4.07
2022-08-11T07:14:50.730Z,4.50
2022-08-11T07:20:14.638Z,4.50
2022-08-11T07:25:37.800Z,4.85
2022-08-11T07:30:43.669Z,4.40
2022-08-11T07:35:55.520Z,3.90
2022-08-11T07:41:01.099Z,3.28
2022-08-11T07:46:23.987Z,3.87
2022-08-11T07:51:45.387Z,3.40
2022-08-11T07:56:55.605Z,3.47
2022-08-11T08:02:31.791Z,3.05
2022-08-11T08:07:55.505Z,2.45
2022-08-11T08:13:19.267Z,3.58
2022-08-11T08:18:26.568Z,3.15
2022-08-11T08:23:34.230Z,3.25
2022-08-11T08:28:41.040Z,3.62
2022-08-11T08:33:45.459Z,3.00
2022-08-11T08:38:51.109Z,3.15
2022-08-11T08:44:20.691Z,3.08
2022-08-11T08:49:27.693Z,3.30
2022-08-11T08:54:37.108Z,2.97
2022-08-11T08:59:48.977Z,3.00
2022-08-11T09:04:53.878Z,2.90
2022-08-11T09:09:59.935Z,2.20
2022-08-11T09:15:10.271Z,3.10
2022-08-11T09:20:18.782Z,2.75
2022-08-11T09:25:44.737Z,2.30
2022-08-11T09:30:53.567Z,2.78
2022-08-11T09:35:58.349Z,2.85
2022-08-11T09:41:05.541Z,2.65
2022-08-11T09:46:11.735Z,2.42
2022-08-11T09:51:16.864Z,2.60
2022-08-11T09:56:42.181Z,2.35
2022-08-11T10:01:50.413Z,2.70
2022-08-11T10:07:04.687Z,2.50
2022-08-11T10:12:12.195Z,2.65
2022-08-11T10:17:20.371Z,2.50
2022-08-11T10:22:42.209Z,2.80
2022-08-11T10:28:32.743Z,2.45
2022-08-11T10:33:37.767Z,2.28
2022-08-11T10:38:52.385Z,2.12
2022-08-11T10:44:02.556Z,2.35
2022-08-11T10:49:09.353Z,2.30
2022-08-11T10:54:33.279Z,2.37
2022-08-11T10:59:37.276Z,2.90
2022-08-11T11:04:58.034Z,2.53
2022-08-11T11:10:05.162Z,1.73
2022-08-11T11:15:28.136Z,2.30
2022-08-11T11:20:42.635Z,2.47
2022-08-11T11:26:11.242Z,2.00
2022-08-11T11:31:29.303Z,2.03
2022-08-11T11:36:46.035Z,1.50
2022-08-11T11:41:50.754Z,1.65
2022-08-11T11:46:56.725Z,1.65
2022-08-11T11:52:02.456Z,1.75
2022-08-11T11:57:20.692Z,1.73
2022-08-11T12:02:24.759Z,2.00
2022-08-11T12:07:56.884Z,1.70
2022-08-11T12:13:31.476Z,1.80
2022-08-11T12:18:36.254Z,1.70
2022-08-11T12:24:04.076Z,1.60
2022-08-11T12:29:10.688Z,2.00
2022-08-11T12:34:16.174Z,1.70
2022-08-11T12:40:16.315Z,1.55
2022-08-11T12:45:31.530Z,1.90
2022-08-11T12:50:53.920Z,2.00
2022-08-11T12:56:20.081Z,1.73
2022-08-11T13:01:41.559Z,1.67
2022-08-11T13:06:45.953Z,2.15
2022-08-11T13:12:08.725Z,1.80
2022-08-11T13:17:43.665Z,1.77
2022-08-11T13:22:50.157Z,1.80
2022-08-11T13:28:00.345Z,2.13
2022-08-11T13:33:06.379Z,1.58
2022-08-11T13:38:18.660Z,1.80
2022-08-11T13:43:25.864Z,1.83
2022-08-11T13:48:29.742Z,1.50
2022-08-11T13:53:34.164Z,1.80
2022-08-11T13:58:41.075Z,1.70
2022-08-11T14:04:28.785Z,2.17
2022-08-11T14:09:12.451Z,1.60
2022-08-11T14:14:23.492Z,1.55
2022-08-11T14:19:29.283Z,1.52
2022-08-11T14:24:33.351Z,1.95
2022-08-11T14:29:45.260Z,1.80
2022-08-11T14:34:53.255Z,2.00
2022-08-11T14:40:03.182Z,2.17
2022-08-11T14:45:58.314Z,2.70
2022-08-11T14:50:54.433Z,1.67
2022-08-11T14:56:15.309Z,1.95
2022-08-11T15:01:38.536Z,1.55
2022-08-11T15:06:43.030Z,2.03
2022-08-11T15:12:04.456Z,1.60
2022-08-11T15:17:12.110Z,2.10
2022-08-11T15:22:33.528Z,1.67
2022-08-11T15:27:56.252Z,1.87
2022-08-11T15:33:22.907Z,1.70
2022-08-11T15:38:28.135Z,1.83
2022-08-11T15:43:55.994Z,1.40
2022-08-11T15:49:03.841Z,1.70
2022-08-11T15:54:11.489Z,1.60
2022-08-11T15:59:41.979Z,1.42
2022-08-11T16:04:50.274Z,1.42
2022-08-11T16:10:00.263Z,1.80
2022-08-11T16:15:25.784Z,1.77
2022-08-11T16:20:32.810Z,1.67
2022-08-11T16:27:04.133Z,2.25
2022-08-11T16:31:02.748Z,1.92
2022-08-11T16:36:27.968Z,1.92
2022-08-11T16:41:51.709Z,1.55
2022-08-11T16:47:03.622Z,1.85
2022-08-11T16:52:12.182Z,2.00
2022-08-11T16:57:35.768Z,1.98
2022-08-11T17:03:03.373Z,1.70
2022-08-11T17:08:28.123Z,1.92
2022-08-11T17:13:37.926Z,1.65
2022-08-11T17:18:49.883Z,1.70
2022-08-11T17:23:57.986Z,1.55
2022-08-11T17:29:03.861Z,1.33
2022-08-11T17:34:26.341Z,2.03
2022-08-11T17:39:33.687Z,1.52
2022-08-11T17:44:57.719Z,1.60
2022-08-11T17:50:09.502Z,1.60
2022-08-11T17:55:52.007Z,1.35
2022-08-11T18:01:02.291Z,1.90
2022-08-11T18:06:15.795Z,1.90
2022-08-11T18:12:07.431Z,1.80
2022-08-11T18:17:21.762Z,2.50
2022-08-11T18:22:47.444Z,1.80
2022-08-11T18:28:13.264Z,1.80
2022-08-11T18:34:03.888Z,1.65
2022-08-11T18:39:19.598Z,2.12
2022-08-11T18:44:47.132Z,1.85
2022-08-11T18:50:11.533Z,1.80
2022-08-11T18:55:38.364Z,1.80
2022-08-11T19:01:04.678Z,2.15
2022-08-11T19:06:39.012Z,1.95
2022-08-11T19:12:03.534Z,2.37
2022-08-11T19:17:44.619Z,2.05
2022-08-11T19:23:09.915Z,2.28
2022-08-11T19:28:33.321Z,1.87
2022-08-11T19:34:02.638Z,2.10
2022-08-11T19:39:33.029Z,3.70
2022-08-11T19:44:54.482Z,2.72
2022-08-11T19:50:21.974Z,2.20
2022-08-11T19:55:47.059Z,2.28
2022-08-11T20:01:08.616Z,2.40
2022-08-11T20:06:35.418Z,2.25
2022-08-11T20:12:01.259Z,2.87
2022-08-11T20:17:24.332Z,2.45
2022-08-11T20:22:49.594Z,2.17
2022-08-11T20:28:13.219Z,2.15
2022-08-11T20:33:35.976Z,2.22
2022-08-11T20:39:00.153Z,2.37
2022-08-11T20:44:22.647Z,2.15
2022-08-11T20:49:52.588Z,2.58
2022-08-11T20:55:38.842Z,2.05
2022-08-11T21:01:02.547Z,2.00
2022-08-11T21:06:32.912Z,2.62
2022-08-11T21:11:58.348Z,2.50
2022-08-11T21:17:27.501Z,2.30
2022-08-11T21:23:06.330Z,2.33
2022-08-11T21:28:31.017Z,2.15
2022-08-11T21:33:53.675Z,2.60
2022-08-11T21:39:15.997Z,2.10
2022-08-11T21:44:39.747Z,2.35
2022-08-11T21:50:02.794Z,2.25
2022-08-11T21:55:25.058Z,1.83
2022-08-11T22:00:49.691Z,2.53
2022-08-11T22:06:12.646Z,2.55
2022-08-11T22:11:34.524Z,2.10
2022-08-11T22:16:57.155Z,2.08
2022-08-11T22:22:21.075Z,2.62
2022-08-11T22:27:48.266Z,2.53
2022-08-11T22:33:12.082Z,2.35
2022-08-11T22:38:37.432Z,2.70
2022-08-11T22:43:58.870Z,2.35
2022-08-11T22:49:22.129Z,2.50
2022-08-11T22:54:46.507Z,2.05
2022-08-11T23:00:10.508Z,2.22
2022-08-11T23:05:34.806Z,2.35
2022-08-11T23:10:57.185Z,2.17
2022-08-11T23:16:19.525Z,2.40
2022-08-11T23:21:43.110Z,2.08
2022-08-11T23:27:08.415Z,1.80
2022-08-11T23:32:29.866Z,2.42
2022-08-11T23:37:52.588Z,2.00
2022-08-11T23:43:14.497Z,2.20
2022-08-11T23:48:39.427Z,2.20
2022-08-11T23:54:07.639Z,2.45
2022-08-11T23:59:34.672Z,1.73
